sensor_id;sensor_type;location;lat;lon;timestamp;temperature;humidity
23237;DHT22;11787;52.018;8.570;2022-07-01T00:00:37;17.60;99.90
23237;DHT22;11787;52.018;8.570;2022-07-01T00:03:03;17.50;99.90
23237;DHT22;11787;52.018;8.570;2022-07-01T00:05:30;17.10;99.90
23237;DHT22;11787;52.018;8.570;2022-07-01T00:07:56;17.10;99.90
23237;DHT22;11787;52.018;8.570;2022-07-01T00:10:21;17.10;99.90
23237;DHT22;11787;52.018;8.570;2022-07-01T00:12:47;17.10;99.90
23237;DHT22;11787;52.018;8.570;2022-07-01T00:15:13;17.10;99.90
23237;DHT22;11787;52.018;8.570;2022-07-01T00:17:39;17.10;99.90
23237;DHT22;11787;52.018;8.570;2022-07-01T00:20:06;17.00;99.90
23237;DHT22;11787;52.018;8.570;2022-07-01T00:22:35;17.00;99.90
23237;DHT22;11787;52.018;8.570;2022-07-01T00:25:01;17.00;99.90
23237;DHT22;11787;52.018;8.570;2022-07-01T00:27:28;16.90;99.90
23237;DHT22;11787;52.018;8.570;2022-07-01T00:29:53;16.90;99.90
23237;DHT22;11787;52.018;8.570;2022-07-01T00:32:19;16.90;99.90
23237;DHT22;11787;52.018;8.570;2022-07-01T00:34:45;16.90;99.90
23237;DHT22;11787;52.018;8.570;2022-07-01T00:37:11;16.90;99.90
23237;DHT22;11787;52.018;8.570;2022-07-01T00:39:36;16.90;99.90
23237;DHT22;11787;52.018;8.570;2022-07-01T00:42:05;16.80;99.90
23237;DHT22;11787;52.018;8.570;2022-07-01T00:44:31;16.90;99.90
23237;DHT22;11787;52.018;8.570;2022-07-01T00:47:01;16.80;99.90
23237;DHT22;11787;52.018;8.570;2022-07-01T00:49:28;16.80;99.90
23237;DHT22;11787;52.018;8.570;2022-07-01T00:51:55;16.70;99.90
23237;DHT22;11787;52.018;8.570;2022-07-01T00:54:21;16.70;99.90
23237;DHT22;11787;52.018;8.570;2022-07-01T00:56:47;16.60;99.90
23237;DHT22;11787;52.018;8.570;2022-07-01T00:59:13;16.70;99.90
23237;DHT22;11787;52.018;8.570;2022-07-01T01:01:39;16.60;99.90
23237;DHT22;11787;52.018;8.570;2022-07-01T01:04:05;16.50;99.90
23237;DHT22;11787;52.018;8.570;2022-07-01T01:06:31;16.50;99.90
23237;DHT22;11787;52.018;8.570;2022-07-01T01:08:56;16.60;99.90
23237;DHT22;11787;52.018;8.570;2022-07-01T01:11:22;16.50;99.90
23237;DHT22;11787;52.018;8.570;2022-07-01T01:13:48;16.50;99.90
23237;DHT22;11787;52.018;8.570;2022-07-01T01:16:18;16.50;99.90
23237;DHT22;11787;52.018;8.570;2022-07-01T01:18:44;16.50;99.90
23237;DHT22;11787;52.018;8.570;2022-07-01T01:21:10;16.30;99.90
23237;DHT22;11787;52.018;8.570;2022-07-01T01:23:35;16.20;99.90
23237;DHT22;11787;52.018;8.570;2022-07-01T01:26:01;16.20;99.90
23237;DHT22;11787;52.018;8.570;2022-07-01T01:28:28;16.30;99.90
23237;DHT22;11787;52.018;8.570;2022-07-01T01:30:54;16.30;99.90
23237;DHT22;11787;52.018;8.570;2022-07-01T01:33:20;16.30;99.90
23237;DHT22;11787;52.018;8.570;2022-07-01T01:35:46;16.30;99.90
23237;DHT22;11787;52.018;8.570;2022-07-01T01:38:11;16.30;99.90
23237;DHT22;11787;52.018;8.570;2022-07-01T01:40:40;16.40;99.90
23237;DHT22;11787;52.018;8.570;2022-07-01T01:43:06;16.30;99.90
23237;DHT22;11787;52.018;8.570;2022-07-01T01:45:31;16.30;99.90
23237;DHT22;11787;52.018;8.570;2022-07-01T01:47:57;16.40;99.90
23237;DHT22;11787;52.018;8.570;2022-07-01T01:50:22;16.30;99.90
23237;DHT22;11787;52.018;8.570;2022-07-01T01:52:48;16.30;99.90
23237;DHT22;11787;52.018;8.570;2022-07-01T01:55:14;16.30;99.90
23237;DHT22;11787;52.018;8.570;2022-07-01T01:57:40;16.30;99.90
23237;DHT22;11787;52.018;8.570;2022-07-01T02:00:06;16.30;99.90
23237;DHT22;11787;52.018;8.570;2022-07-01T02:02:33;16.40;99.90
23237;DHT22;11787;52.018;8.570;2022-07-01T02:05:03;16.40;99.90
23237;DHT22;11787;52.018;8.570;2022-07-01T02:07:28;16.30;99.90
23237;DHT22;11787;52.018;8.570;2022-07-01T02:09:54;16.20;99.90
23237;DHT22;11787;52.018;8.570;2022-07-01T02:12:20;16.20;99.90
23237;DHT22;11787;52.018;8.570;2022-07-01T02:14:45;16.20;99.90
23237;DHT22;11787;52.018;8.570;2022-07-01T02:17:11;16.20;99.90
23237;DHT22;11787;52.018;8.570;2022-07-01T02:19:36;16.10;99.90
23237;DHT22;11787;52.018;8.570;2022-07-01T02:22:02;16.10;99.90
23237;DHT22;11787;52.018;8.570;2022-07-01T02:24:28;16.20;99.90
23237;DHT22;11787;52.018;8.570;2022-07-01T02:26:54;16.20;99.90
23237;DHT22;11787;52.018;8.570;2022-07-01T02:29:19;16.30;99.90
23237;DHT22;11787;52.018;8.570;2022-07-01T02:31:45;16.20;99.90
23237;DHT22;11787;52.018;8.570;2022-07-01T02:34:10;16.20;99.90
23237;DHT22;11787;52.018;8.570;2022-07-01T02:36:36;16.30;99.90
23237;DHT22;11787;52.018;8.570;2022-07-01T02:39:02;16.30;99.90
23237;DHT22;11787;52.018;8.570;2022-07-01T02:41:28;16.20;99.90
23237;DHT22;11787;52.018;8.570;2022-07-01T02:43:53;16.10;99.90
23237;DHT22;11787;52.018;8.570;2022-07-01T02:46:19;16.10;99.90
23237;DHT22;11787;52.018;8.570;2022-07-01T02:48:45;16.10;99.90
23237;DHT22;11787;52.018;8.570;2022-07-01T02:51:10;16.20;99.90
23237;DHT22;11787;52.018;8.570;2022-07-01T02:53:36;16.10;99.90
23237;DHT22;11787;52.018;8.570;2022-07-01T02:56:02;16.00;99.90
23237;DHT22;11787;52.018;8.570;2022-07-01T02:58:30;16.10;99.90
23237;DHT22;11787;52.018;8.570;2022-07-01T03:00:55;16.10;99.90
23237;DHT22;11787;52.018;8.570;2022-07-01T03:03:21;16.20;99.90
23237;DHT22;11787;52.018;8.570;2022-07-01T03:05:47;16.20;99.90
23237;DHT22;11787;52.018;8.570;2022-07-01T03:08:14;16.30;99.90
23237;DHT22;11787;52.018;8.570;2022-07-01T03:10:40;16.10;99.90
23237;DHT22;11787;52.018;8.570;2022-07-01T03:13:05;16.10;99.90
23237;DHT22;11787;52.018;8.570;2022-07-01T03:15:31;16.10;99.90
23237;DHT22;11787;52.018;8.570;2022-07-01T03:17:57;16.10;99.90
23237;DHT22;11787;52.018;8.570;2022-07-01T03:20:22;16.10;99.90
23237;DHT22;11787;52.018;8.570;2022-07-01T03:22:48;16.10;99.90
23237;DHT22;11787;52.018;8.570;2022-07-01T03:25:22;16.10;99.90
23237;DHT22;11787;52.018;8.570;2022-07-01T03:27:48;16.20;99.90
23237;DHT22;11787;52.018;8.570;2022-07-01T03:30:14;16.10;99.90
23237;DHT22;11787;52.018;8.570;2022-07-01T03:32:40;16.00;99.90
23237;DHT22;11787;52.018;8.570;2022-07-01T03:35:06;15.90;99.90
23237;DHT22;11787;52.018;8.570;2022-07-01T03:37:52;16.00;99.90
23237;DHT22;11787;52.018;8.570;2022-07-01T03:40:17;15.90;99.90
23237;DHT22;11787;52.018;8.570;2022-07-01T03:42:43;16.00;99.90
23237;DHT22;11787;52.018;8.570;2022-07-01T03:45:09;15.90;99.90
23237;DHT22;11787;52.018;8.570;2022-07-01T03:47:34;16.00;99.90
23237;DHT22;11787;52.018;8.570;2022-07-01T03:50:00;16.00;99.90
23237;DHT22;11787;52.018;8.570;2022-07-01T03:52:26;15.90;99.90
23237;DHT22;11787;52.018;8.570;2022-07-01T03:54:51;15.80;99.90
23237;DHT22;11787;52.018;8.570;2022-07-01T03:57:17;15.80;99.90
23237;DHT22;11787;52.018;8.570;2022-07-01T03:59:43;15.80;99.90
23237;DHT22;11787;52.018;8.570;2022-07-01T04:02:08;15.90;99.90
23237;DHT22;11787;52.018;8.570;2022-07-01T04:04:35;15.80;99.90
23237;DHT22;11787;52.018;8.570;2022-07-01T04:07:02;15.70;99.90
23237;DHT22;11787;52.018;8.570;2022-07-01T04:09:28;15.80;99.90
23237;DHT22;11787;52.018;8.570;2022-07-01T04:11:55;15.80;99.90
23237;DHT22;11787;52.018;8.570;2022-07-01T04:14:21;15.80;99.90
23237;DHT22;11787;52.018;8.570;2022-07-01T04:16:47;15.80;99.90
23237;DHT22;11787;52.018;8.570;2022-07-01T04:19:16;15.80;99.90
23237;DHT22;11787;52.018;8.570;2022-07-01T04:21:42;15.80;99.90
23237;DHT22;11787;52.018;8.570;2022-07-01T04:24:26;15.70;99.90
23237;DHT22;11787;52.018;8.570;2022-07-01T04:26:57;15.70;99.90
23237;DHT22;11787;52.018;8.570;2022-07-01T04:29:23;15.70;99.90
23237;DHT22;11787;52.018;8.570;2022-07-01T04:31:49;15.70;99.90
23237;DHT22;11787;52.018;8.570;2022-07-01T04:34:15;15.70;99.90
23237;DHT22;11787;52.018;8.570;2022-07-01T04:36:41;15.80;99.90
23237;DHT22;11787;52.018;8.570;2022-07-01T04:39:07;15.80;99.90
23237;DHT22;11787;52.018;8.570;2022-07-01T04:41:33;15.70;99.90
23237;DHT22;11787;52.018;8.570;2022-07-01T04:44:18;15.70;99.90
23237;DHT22;11787;52.018;8.570;2022-07-01T04:46:44;15.60;99.90
23237;DHT22;11787;52.018;8.570;2022-07-01T04:49:10;15.60;99.90
23237;DHT22;11787;52.018;8.570;2022-07-01T04:51:35;15.60;99.90
23237;DHT22;11787;52.018;8.570;2022-07-01T04:54:02;15.60;99.90
23237;DHT22;11787;52.018;8.570;2022-07-01T04:56:28;15.60;99.90
23237;DHT22;11787;52.018;8.570;2022-07-01T04:58:57;15.60;99.90
23237;DHT22;11787;52.018;8.570;2022-07-01T05:01:23;15.70;99.90
23237;DHT22;11787;52.018;8.570;2022-07-01T05:03:49;15.70;99.90
23237;DHT22;11787;52.018;8.570;2022-07-01T05:06:15;15.70;99.90
23237;DHT22;11787;52.018;8.570;2022-07-01T05:08:42;15.70;99.90
23237;DHT22;11787;52.018;8.570;2022-07-01T05:11:08;15.70;99.90
23237;DHT22;11787;52.018;8.570;2022-07-01T05:13:34;15.70;99.90
23237;DHT22;11787;52.018;8.570;2022-07-01T05:16:00;15.70;99.90
23237;DHT22;11787;52.018;8.570;2022-07-01T05:18:26;15.60;99.90
23237;DHT22;11787;52.018;8.570;2022-07-01T05:21:10;15.60;99.90
23237;DHT22;11787;52.018;8.570;2022-07-01T05:23:54;15.60;99.90
23237;DHT22;11787;52.018;8.570;2022-07-01T05:26:20;15.60;99.90
23237;DHT22;11787;52.018;8.570;2022-07-01T05:28:47;15.70;99.90
23237;DHT22;11787;52.018;8.570;2022-07-01T05:31:13;15.70;99.90
23237;DHT22;11787;52.018;8.570;2022-07-01T05:33:39;15.60;99.90
23237;DHT22;11787;52.018;8.570;2022-07-01T05:36:05;15.70;99.90
23237;DHT22;11787;52.018;8.570;2022-07-01T05:38:31;15.60;99.90
23237;DHT22;11787;52.018;8.570;2022-07-01T05:40:57;15.60;99.90
23237;DHT22;11787;52.018;8.570;2022-07-01T05:43:22;15.60;99.90
23237;DHT22;11787;52.018;8.570;2022-07-01T05:45:48;15.50;99.90
23237;DHT22;11787;52.018;8.570;2022-07-01T05:48:14;15.60;99.90
23237;DHT22;11787;52.018;8.570;2022-07-01T05:50:40;15.60;99.90
23237;DHT22;11787;52.018;8.570;2022-07-01T05:53:07;15.60;99.90
23237;DHT22;11787;52.018;8.570;2022-07-01T05:55:32;15.60;99.90
23237;DHT22;11787;52.018;8.570;2022-07-01T05:57:58;15.50;99.90
23237;DHT22;11787;52.018;8.570;2022-07-01T06:00:27;15.50;99.90
23237;DHT22;11787;52.018;8.570;2022-07-01T06:02:52;15.60;99.90
23237;DHT22;11787;52.018;8.570;2022-07-01T06:05:18;15.60;99.90
23237;DHT22;11787;52.018;8.570;2022-07-01T06:07:44;15.70;99.90
23237;DHT22;11787;52.018;8.570;2022-07-01T06:10:10;15.80;99.90
23237;DHT22;11787;52.018;8.570;2022-07-01T06:12:39;15.90;99.90
23237;DHT22;11787;52.018;8.570;2022-07-01T06:15:10;15.90;99.90
23237;DHT22;11787;52.018;8.570;2022-07-01T06:17:36;15.70;99.90
23237;DHT22;11787;52.018;8.570;2022-07-01T06:20:03;15.70;99.90
23237;DHT22;11787;52.018;8.570;2022-07-01T06:22:28;15.70;99.90
23237;DHT22;11787;52.018;8.570;2022-07-01T06:24:54;15.70;99.90
23237;DHT22;11787;52.018;8.570;2022-07-01T06:27:19;15.80;99.90
23237;DHT22;11787;52.018;8.570;2022-07-01T06:29:45;15.80;99.90
23237;DHT22;11787;52.018;8.570;2022-07-01T06:32:11;15.70;99.90
23237;DHT22;11787;52.018;8.570;2022-07-01T06:34:37;15.90;99.90
23237;DHT22;11787;52.018;8.570;2022-07-01T06:37:04;15.90;99.90
23237;DHT22;11787;52.018;8.570;2022-07-01T06:39:30;16.00;99.90
23237;DHT22;11787;52.018;8.570;2022-07-01T06:41:56;16.10;99.90
23237;DHT22;11787;52.018;8.570;2022-07-01T06:44:22;16.20;99.90
23237;DHT22;11787;52.018;8.570;2022-07-01T06:46:47;16.00;99.90
23237;DHT22;11787;52.018;8.570;2022-07-01T06:49:13;16.00;99.90
23237;DHT22;11787;52.018;8.570;2022-07-01T06:51:39;15.90;99.90
23237;DHT22;11787;52.018;8.570;2022-07-01T06:54:05;15.90;99.90
23237;DHT22;11787;52.018;8.570;2022-07-01T06:56:31;15.90;99.90
23237;DHT22;11787;52.018;8.570;2022-07-01T06:58:56;15.90;99.90
23237;DHT22;11787;52.018;8.570;2022-07-01T07:01:22;16.00;99.90
23237;DHT22;11787;52.018;8.570;2022-07-01T07:03:48;16.10;99.90
23237;DHT22;11787;52.018;8.570;2022-07-01T07:06:14;16.20;99.90
23237;DHT22;11787;52.018;8.570;2022-07-01T07:08:39;16.10;99.90
23237;DHT22;11787;52.018;8.570;2022-07-01T07:11:05;16.10;99.90
23237;DHT22;11787;52.018;8.570;2022-07-01T07:13:32;16.10;99.90
23237;DHT22;11787;52.018;8.570;2022-07-01T07:15:57;16.00;99.90
23237;DHT22;11787;52.018;8.570;2022-07-01T07:18:23;16.00;99.90
23237;DHT22;11787;52.018;8.570;2022-07-01T07:20:48;16.00;99.90
23237;DHT22;11787;52.018;8.570;2022-07-01T07:23:14;16.10;99.90
23237;DHT22;11787;52.018;8.570;2022-07-01T07:25:39;16.10;99.90
23237;DHT22;11787;52.018;8.570;2022-07-01T07:28:05;16.00;99.90
23237;DHT22;11787;52.018;8.570;2022-07-01T07:30:31;15.80;99.90
23237;DHT22;11787;52.018;8.570;2022-07-01T07:32:56;15.70;99.90
23237;DHT22;11787;52.018;8.570;2022-07-01T07:35:22;15.80;99.90
23237;DHT22;11787;52.018;8.570;2022-07-01T07:37:47;15.80;99.90
23237;DHT22;11787;52.018;8.570;2022-07-01T07:40:13;16.00;99.90
23237;DHT22;11787;52.018;8.570;2022-07-01T07:42:43;15.90;99.90
23237;DHT22;11787;52.018;8.570;2022-07-01T07:45:09;16.00;99.90
23237;DHT22;11787;52.018;8.570;2022-07-01T07:47:36;16.00;99.90
23237;DHT22;11787;52.018;8.570;2022-07-01T07:50:02;16.00;99.90
23237;DHT22;11787;52.018;8.570;2022-07-01T07:52:28;16.10;99.90
23237;DHT22;11787;52.018;8.570;2022-07-01T07:54:54;16.30;99.90
23237;DHT22;11787;52.018;8.570;2022-07-01T07:57:19;16.50;99.90
23237;DHT22;11787;52.018;8.570;2022-07-01T07:59:45;16.80;99.90
23237;DHT22;11787;52.018;8.570;2022-07-01T08:02:11;16.80;99.90
23237;DHT22;11787;52.018;8.570;2022-07-01T08:04:37;16.80;99.90
23237;DHT22;11787;52.018;8.570;2022-07-01T08:07:02;16.70;99.90
23237;DHT22;11787;52.018;8.570;2022-07-01T08:09:28;16.80;99.90
23237;DHT22;11787;52.018;8.570;2022-07-01T08:11:54;16.70;99.90
23237;DHT22;11787;52.018;8.570;2022-07-01T08:14:19;16.70;99.90
23237;DHT22;11787;52.018;8.570;2022-07-01T08:16:45;16.70;99.90
23237;DHT22;11787;52.018;8.570;2022-07-01T08:19:10;16.80;99.90
23237;DHT22;11787;52.018;8.570;2022-07-01T08:21:36;16.80;99.90
23237;DHT22;11787;52.018;8.570;2022-07-01T08:24:01;16.80;99.90
23237;DHT22;11787;52.018;8.570;2022-07-01T08:26:28;16.70;99.90
23237;DHT22;11787;52.018;8.570;2022-07-01T08:28:56;16.70;99.90
23237;DHT22;11787;52.018;8.570;2022-07-01T08:31:21;16.70;99.90
23237;DHT22;11787;52.018;8.570;2022-07-01T08:33:47;16.70;99.90
23237;DHT22;11787;52.018;8.570;2022-07-01T08:36:12;16.80;99.90
23237;DHT22;11787;52.018;8.570;2022-07-01T08:38:39;16.70;99.90
23237;DHT22;11787;52.018;8.570;2022-07-01T08:41:05;16.60;99.90
23237;DHT22;11787;52.018;8.570;2022-07-01T08:43:31;16.70;99.90
23237;DHT22;11787;52.018;8.570;2022-07-01T08:45:59;16.60;99.90
23237;DHT22;11787;52.018;8.570;2022-07-01T08:48:27;16.70;99.90
23237;DHT22;11787;52.018;8.570;2022-07-01T08:50:53;16.60;99.90
23237;DHT22;11787;52.018;8.570;2022-07-01T08:53:19;16.60;99.90
23237;DHT22;11787;52.018;8.570;2022-07-01T08:55:44;16.70;99.90
23237;DHT22;11787;52.018;8.570;2022-07-01T08:58:28;16.70;99.90
23237;DHT22;11787;52.018;8.570;2022-07-01T09:01:12;16.60;99.90
23237;DHT22;11787;52.018;8.570;2022-07-01T09:03:38;16.60;99.90
23237;DHT22;11787;52.018;8.570;2022-07-01T09:06:20;16.60;99.90
23237;DHT22;11787;52.018;8.570;2022-07-01T09:08:47;16.70;99.90
23237;DHT22;11787;52.018;8.570;2022-07-01T09:11:24;16.70;99.90
23237;DHT22;11787;52.018;8.570;2022-07-01T09:14:08;16.70;99.90
23237;DHT22;11787;52.018;8.570;2022-07-01T09:16:45;17.00;99.90
23237;DHT22;11787;52.018;8.570;2022-07-01T09:19:12;17.10;99.90
23237;DHT22;11787;52.018;8.570;2022-07-01T09:21:38;17.00;99.90
23237;DHT22;11787;52.018;8.570;2022-07-01T09:24:22;17.20;99.90
23237;DHT22;11787;52.018;8.570;2022-07-01T09:26:56;17.20;99.90
23237;DHT22;11787;52.018;8.570;2022-07-01T09:29:26;17.40;99.90
23237;DHT22;11787;52.018;8.570;2022-07-01T09:31:52;17.60;99.90
23237;DHT22;11787;52.018;8.570;2022-07-01T09:34:18;18.00;99.90
23237;DHT22;11787;52.018;8.570;2022-07-01T09:36:56;18.40;99.90
23237;DHT22;11787;52.018;8.570;2022-07-01T09:39:21;18.70;99.90
23237;DHT22;11787;52.018;8.570;2022-07-01T09:41:47;19.00;99.90
23237;DHT22;11787;52.018;8.570;2022-07-01T09:44:14;18.90;99.90
23237;DHT22;11787;52.018;8.570;2022-07-01T09:46:51;18.90;99.90
23237;DHT22;11787;52.018;8.570;2022-07-01T09:49:18;18.80;99.90
23237;DHT22;11787;52.018;8.570;2022-07-01T09:51:44;19.00;99.90
23237;DHT22;11787;52.018;8.570;2022-07-01T09:54:12;19.20;99.90
23237;DHT22;11787;52.018;8.570;2022-07-01T09:56:38;19.50;99.90
23237;DHT22;11787;52.018;8.570;2022-07-01T09:59:03;19.50;99.90
23237;DHT22;11787;52.018;8.570;2022-07-01T10:01:31;19.50;99.90
23237;DHT22;11787;52.018;8.570;2022-07-01T10:03:58;19.60;99.90
23237;DHT22;11787;52.018;8.570;2022-07-01T10:14:27;19.10;99.90
23237;DHT22;11787;52.018;8.570;2022-07-01T10:16:55;19.30;99.90
23237;DHT22;11787;52.018;8.570;2022-07-01T10:21:46;19.80;99.90
23237;DHT22;11787;52.018;8.570;2022-07-01T10:24:13;19.70;99.90
23237;DHT22;11787;52.018;8.570;2022-07-01T10:26:40;19.80;99.90
23237;DHT22;11787;52.018;8.570;2022-07-01T10:29:33;19.80;99.90
23237;DHT22;11787;52.018;8.570;2022-07-01T10:32:10;19.60;99.90
23237;DHT22;11787;52.018;8.570;2022-07-01T10:34:50;19.40;99.90
23237;DHT22;11787;52.018;8.570;2022-07-01T10:37:27;19.80;99.90
23237;DHT22;11787;52.018;8.570;2022-07-01T10:40:00;20.00;99.90
23237;DHT22;11787;52.018;8.570;2022-07-01T10:42:34;19.90;99.90
23237;DHT22;11787;52.018;8.570;2022-07-01T10:45:11;19.90;99.90
23237;DHT22;11787;52.018;8.570;2022-07-01T10:47:39;20.20;99.90
23237;DHT22;11787;52.018;8.570;2022-07-01T10:50:10;20.20;99.90
23237;DHT22;11787;52.018;8.570;2022-07-01T10:52:36;20.30;99.90
23237;DHT22;11787;52.018;8.570;2022-07-01T10:55:09;20.40;99.90
23237;DHT22;11787;52.018;8.570;2022-07-01T10:57:38;20.40;99.90
23237;DHT22;11787;52.018;8.570;2022-07-01T11:02:32;20.10;99.90
23237;DHT22;11787;52.018;8.570;2022-07-01T11:07:27;20.20;99.90
23237;DHT22;11787;52.018;8.570;2022-07-01T11:09:53;20.20;99.90
23237;DHT22;11787;52.018;8.570;2022-07-01T11:12:21;20.20;99.90
23237;DHT22;11787;52.018;8.570;2022-07-01T11:14:48;19.90;99.90
23237;DHT22;11787;52.018;8.570;2022-07-01T11:17:14;19.70;99.90
23237;DHT22;11787;52.018;8.570;2022-07-01T11:19:47;19.50;99.90
23237;DHT22;11787;52.018;8.570;2022-07-01T11:22:20;19.30;99.90
23237;DHT22;11787;52.018;8.570;2022-07-01T11:24:50;19.10;99.90
23237;DHT22;11787;52.018;8.570;2022-07-01T11:27:16;19.00;99.90
23237;DHT22;11787;52.018;8.570;2022-07-01T11:29:42;18.90;99.90
23237;DHT22;11787;52.018;8.570;2022-07-01T11:32:08;19.00;99.90
23237;DHT22;11787;52.018;8.570;2022-07-01T11:34:35;18.90;99.90
23237;DHT22;11787;52.018;8.570;2022-07-01T11:37:11;19.00;99.90
23237;DHT22;11787;52.018;8.570;2022-07-01T11:40:10;19.00;99.90
23237;DHT22;11787;52.018;8.570;2022-07-01T11:42:37;19.00;99.90
23237;DHT22;11787;52.018;8.570;2022-07-01T11:45:03;19.20;99.90
23237;DHT22;11787;52.018;8.570;2022-07-01T11:47:30;19.30;99.90
23237;DHT22;11787;52.018;8.570;2022-07-01T11:49:57;19.20;99.90
23237;DHT22;11787;52.018;8.570;2022-07-01T11:52:24;19.30;99.90
23237;DHT22;11787;52.018;8.570;2022-07-01T11:54:52;19.60;99.90
23237;DHT22;11787;52.018;8.570;2022-07-01T11:57:20;19.80;99.90
23237;DHT22;11787;52.018;8.570;2022-07-01T11:59:53;20.00;99.90
23237;DHT22;11787;52.018;8.570;2022-07-01T12:02:22;19.90;99.90
23237;DHT22;11787;52.018;8.570;2022-07-01T12:04:48;20.00;99.90
23237;DHT22;11787;52.018;8.570;2022-07-01T12:07:16;19.90;99.90
23237;DHT22;11787;52.018;8.570;2022-07-01T12:09:42;19.80;99.90
23237;DHT22;11787;52.018;8.570;2022-07-01T12:12:17;19.90;99.90
23237;DHT22;11787;52.018;8.570;2022-07-01T12:14:57;20.00;99.90
23237;DHT22;11787;52.018;8.570;2022-07-01T12:17:24;20.00;99.90
23237;DHT22;11787;52.018;8.570;2022-07-01T12:19:50;19.90;99.90
23237;DHT22;11787;52.018;8.570;2022-07-01T12:22:21;19.80;99.90
23237;DHT22;11787;52.018;8.570;2022-07-01T12:24:50;19.90;99.90
23237;DHT22;11787;52.018;8.570;2022-07-01T12:27:16;19.90;99.90
23237;DHT22;11787;52.018;8.570;2022-07-01T12:29:49;19.80;99.90
23237;DHT22;11787;52.018;8.570;2022-07-01T12:32:17;19.60;99.90
23237;DHT22;11787;52.018;8.570;2022-07-01T12:34:49;19.70;99.90
23237;DHT22;11787;52.018;8.570;2022-07-01T12:37:19;19.80;99.90
23237;DHT22;11787;52.018;8.570;2022-07-01T12:39:52;19.90;99.90
23237;DHT22;11787;52.018;8.570;2022-07-01T12:45:05;20.70;99.90
23237;DHT22;11787;52.018;8.570;2022-07-01T12:47:44;21.00;99.90
23237;DHT22;11787;52.018;8.570;2022-07-01T12:50:11;21.10;99.90
23237;DHT22;11787;52.018;8.570;2022-07-01T12:52:38;21.20;99.90
23237;DHT22;11787;52.018;8.570;2022-07-01T12:55:16;21.40;99.90
23237;DHT22;11787;52.018;8.570;2022-07-01T12:57:43;21.50;99.90
23237;DHT22;11787;52.018;8.570;2022-07-01T13:00:08;21.30;99.90
23237;DHT22;11787;52.018;8.570;2022-07-01T13:02:34;21.30;99.90
23237;DHT22;11787;52.018;8.570;2022-07-01T13:05:00;21.20;99.90
23237;DHT22;11787;52.018;8.570;2022-07-01T13:07:26;21.50;99.90
23237;DHT22;11787;52.018;8.570;2022-07-01T13:09:51;21.60;99.90
23237;DHT22;11787;52.018;8.570;2022-07-01T13:12:20;21.60;99.90
23237;DHT22;11787;52.018;8.570;2022-07-01T13:14:46;21.80;99.90
23237;DHT22;11787;52.018;8.570;2022-07-01T13:17:11;22.10;99.90
23237;DHT22;11787;52.018;8.570;2022-07-01T13:19:37;22.10;99.90
23237;DHT22;11787;52.018;8.570;2022-07-01T13:22:04;21.90;99.90
23237;DHT22;11787;52.018;8.570;2022-07-01T13:24:30;21.90;99.90
23237;DHT22;11787;52.018;8.570;2022-07-01T13:26:56;21.70;99.90
23237;DHT22;11787;52.018;8.570;2022-07-01T13:29:21;21.50;99.90
23237;DHT22;11787;52.018;8.570;2022-07-01T13:31:47;21.20;99.90
23237;DHT22;11787;52.018;8.570;2022-07-01T13:34:13;21.20;99.90
23237;DHT22;11787;52.018;8.570;2022-07-01T13:36:38;21.50;99.90
23237;DHT22;11787;52.018;8.570;2022-07-01T13:39:04;21.50;99.90
23237;DHT22;11787;52.018;8.570;2022-07-01T13:41:43;21.70;99.90
23237;DHT22;11787;52.018;8.570;2022-07-01T13:44:09;21.50;99.90
23237;DHT22;11787;52.018;8.570;2022-07-01T13:46:34;21.50;99.90
23237;DHT22;11787;52.018;8.570;2022-07-01T13:49:01;21.70;99.90
23237;DHT22;11787;52.018;8.570;2022-07-01T13:51:27;21.80;99.90
23237;DHT22;11787;52.018;8.570;2022-07-01T13:53:53;21.80;99.90
23237;DHT22;11787;52.018;8.570;2022-07-01T13:56:18;21.80;99.90
23237;DHT22;11787;52.018;8.570;2022-07-01T13:58:44;21.80;99.90
23237;DHT22;11787;52.018;8.570;2022-07-01T14:01:12;21.60;99.90
23237;DHT22;11787;52.018;8.570;2022-07-01T14:03:38;21.70;99.90
23237;DHT22;11787;52.018;8.570;2022-07-01T14:06:03;21.80;99.90
23237;DHT22;11787;52.018;8.570;2022-07-01T14:08:29;21.90;99.90
23237;DHT22;11787;52.018;8.570;2022-07-01T14:10:55;21.90;99.90
23237;DHT22;11787;52.018;8.570;2022-07-01T14:13:20;21.80;99.90
23237;DHT22;11787;52.018;8.570;2022-07-01T14:15:48;21.80;99.90
23237;DHT22;11787;52.018;8.570;2022-07-01T14:18:13;21.90;99.90
23237;DHT22;11787;52.018;8.570;2022-07-01T14:20:40;22.10;99.90
23237;DHT22;11787;52.018;8.570;2022-07-01T14:23:09;22.30;99.90
23237;DHT22;11787;52.018;8.570;2022-07-01T14:25:35;22.40;99.90
23237;DHT22;11787;52.018;8.570;2022-07-01T14:28:00;22.70;99.90
23237;DHT22;11787;52.018;8.570;2022-07-01T14:30:26;22.80;99.90
23237;DHT22;11787;52.018;8.570;2022-07-01T14:32:52;22.80;99.90
23237;DHT22;11787;52.018;8.570;2022-07-01T14:35:17;22.80;99.90
23237;DHT22;11787;52.018;8.570;2022-07-01T14:37:43;22.80;99.90
23237;DHT22;11787;52.018;8.570;2022-07-01T14:40:10;22.60;99.90
23237;DHT22;11787;52.018;8.570;2022-07-01T14:42:38;22.90;99.90
23237;DHT22;11787;52.018;8.570;2022-07-01T14:45:05;23.00;99.90
23237;DHT22;11787;52.018;8.570;2022-07-01T14:47:34;22.80;99.90
23237;DHT22;11787;52.018;8.570;2022-07-01T14:50:00;22.60;99.90
23237;DHT22;11787;52.018;8.570;2022-07-01T14:52:25;22.40;99.90
23237;DHT22;11787;52.018;8.570;2022-07-01T14:54:52;22.20;99.90
23237;DHT22;11787;52.018;8.570;2022-07-01T14:57:19;22.10;99.90
23237;DHT22;11787;52.018;8.570;2022-07-01T14:59:45;21.90;99.90
23237;DHT22;11787;52.018;8.570;2022-07-01T15:02:11;22.20;99.90
23237;DHT22;11787;52.018;8.570;2022-07-01T15:04:37;22.00;99.90
23237;DHT22;11787;52.018;8.570;2022-07-01T15:07:05;22.10;99.90
23237;DHT22;11787;52.018;8.570;2022-07-01T15:09:31;22.20;99.90
23237;DHT22;11787;52.018;8.570;2022-07-01T15:11:56;22.60;99.90
23237;DHT22;11787;52.018;8.570;2022-07-01T15:14:22;22.60;99.90
23237;DHT22;11787;52.018;8.570;2022-07-01T15:16:48;22.80;99.90
23237;DHT22;11787;52.018;8.570;2022-07-01T15:19:13;22.70;99.90
23237;DHT22;11787;52.018;8.570;2022-07-01T15:21:39;22.50;99.90
23237;DHT22;11787;52.018;8.570;2022-07-01T15:24:05;22.20;99.90
23237;DHT22;11787;52.018;8.570;2022-07-01T15:26:31;22.30;99.90
23237;DHT22;11787;52.018;8.570;2022-07-01T15:28:56;22.40;99.90
23237;DHT22;11787;52.018;8.570;2022-07-01T15:31:22;22.40;99.90
23237;DHT22;11787;52.018;8.570;2022-07-01T15:33:48;22.50;99.90
23237;DHT22;11787;52.018;8.570;2022-07-01T15:36:14;22.50;99.90
23237;DHT22;11787;52.018;8.570;2022-07-01T15:38:40;22.50;99.90
23237;DHT22;11787;52.018;8.570;2022-07-01T15:41:06;22.50;99.90
23237;DHT22;11787;52.018;8.570;2022-07-01T15:43:32;22.30;99.90
23237;DHT22;11787;52.018;8.570;2022-07-01T15:45:59;22.30;99.90
23237;DHT22;11787;52.018;8.570;2022-07-01T15:48:25;22.40;99.90